Time;durP1;ratioP1;P1;durP2;ratioP2;P2;SDS_P1;SDS_P2;PMS_P1;PMS_P2;Temp;Humidity;BMP_temperature;BMP_pressure;BME280_temperature;BME280_humidity;BME280_pressure;Samples;Min_cycle;Max_cycle;Signal;HPM_P1;HPM_P2
2022/10/16 00:01:07;;;;;;;4.17;3.87;;;;;;;12.91;100.00;97039.72;4953123;28;20364;-63
2022/10/16 00:03:37;;;;;;;7.83;4.03;;;;;;;12.92;100.00;97044.00;5013748;28;21002;-62
2022/10/16 00:06:06;;;;;;;3.60;3.30;;;;;;;12.91;100.00;97053.00;5017629;28;21640;-63
2022/10/16 00:08:34;;;;;;;3.73;3.53;;;;;;;12.87;100.00;97060.56;4943071;28;20207;-61
2022/10/16 00:11:04;;;;;;;3.80;3.60;;;;;;;12.93;100.00;97062.41;5010244;28;20581;-61
2022/10/16 00:13:33;;;;;;;4.03;3.73;;;;;;;12.92;100.00;97054.63;4973542;28;22195;-60
2022/10/16 00:16:02;;;;;;;7.27;3.73;;;;;;;12.93;100.00;97049.09;4977627;28;20253;-60
2022/10/16 00:18:30;;;;;;;4.60;4.07;;;;;;;12.98;100.00;97059.16;5016266;28;20198;-61
2022/10/16 00:21:05;;;;;;;3.90;3.60;;;;;;;13.01;100.00;97058.75;5014587;28;20211;-61
2022/10/16 00:23:34;;;;;;;4.63;3.60;;;;;;;13.00;100.00;97065.88;4964577;28;20535;-64
2022/10/16 00:26:04;;;;;;;4.13;3.50;;;;;;;13.04;100.00;97066.31;5013766;28;20246;-62
2022/10/16 00:28:32;;;;;;;5.60;3.60;;;;;;;13.07;100.00;97067.72;4989992;28;20207;-62
2022/10/16 00:31:04;;;;;;;3.60;3.40;;;;;;;13.05;100.00;97064.44;4971778;28;20203;-62
2022/10/16 00:33:32;;;;;;;3.97;3.73;;;;;;;13.05;100.00;97072.44;5018073;28;20278;-62
2022/10/16 00:36:01;;;;;;;3.87;3.53;;;;;;;13.07;100.00;97073.88;5018698;28;21008;-63
2022/10/16 00:38:30;;;;;;;3.80;3.57;;;;;;;13.05;100.00;97061.78;5020377;28;22020;-63
2022/10/16 00:40:59;;;;;;;3.30;3.20;;;;;;;13.03;100.00;97060.16;4958667;28;20222;-62
2022/10/16 00:43:39;;;;;;;4.07;3.80;;;;;;;13.03;100.00;97060.16;4994216;28;20209;-62
2022/10/16 00:46:13;;;;;;;3.93;3.70;;;;;;;12.97;100.00;97058.31;4949139;28;23336;-61
2022/10/16 00:48:42;;;;;;;4.43;3.83;;;;;;;13.01;100.00;97059.53;5019674;28;20757;-63
2022/10/16 00:51:10;;;;;;;4.03;3.70;;;;;;;13.06;100.00;97055.44;5017707;28;20423;-61
2022/10/16 00:53:40;;;;;;;4.13;3.50;;;;;;;13.01;100.00;97056.88;5018553;28;20225;-61
2022/10/16 00:56:08;;;;;;;4.03;3.40;;;;;;;13.00;100.00;97057.09;4966563;28;20515;-60
2022/10/16 00:58:36;;;;;;;3.43;3.10;;;;;;;13.01;100.00;97053.41;4988279;28;20230;-64
2022/10/16 01:01:05;;;;;;;3.50;3.20;;;;;;;13.01;100.00;97062.19;4990830;28;20238;-62
2022/10/16 01:03:35;;;;;;;3.87;3.30;;;;;;;12.99;100.00;97061.59;4989001;28;20678;-62
2022/10/16 01:06:17;;;;;;;4.83;3.20;;;;;;;13.03;100.00;97056.69;5018697;28;20735;-60
2022/10/16 01:08:56;;;;;;;3.70;3.40;;;;;;;12.99;100.00;97053.59;5015464;28;20207;-62
2022/10/16 01:11:30;;;;;;;4.07;3.60;;;;;;;13.02;100.00;97055.06;4970379;28;21297;-63
2022/10/16 01:14:03;;;;;;;3.77;3.37;;;;;;;13.03;100.00;97056.69;4988589;28;20835;-61
2022/10/16 01:16:36;;;;;;;3.70;3.40;;;;;;;12.92;100.00;97044.00;4983326;28;20241;-60
2022/10/16 01:19:10;;;;;;;3.20;3.03;;;;;;;12.99;100.00;97050.16;4983759;28;20215;-63
2022/10/16 01:21:41;;;;;;;4.23;3.80;;;;;;;12.91;100.00;97056.47;5017826;28;20671;-61
2022/10/16 01:24:18;;;;;;;3.60;3.30;;;;;;;12.90;100.00;97056.69;5020604;28;20198;-62
2022/10/16 01:27:09;;;;;;;5.43;3.23;;;;;;;12.90;100.00;97070.78;4965124;28;20759;-60
2022/10/16 01:29:41;;;;;;;3.70;3.40;;;;;;;12.91;100.00;97079.59;4990616;28;20207;-61
2022/10/16 01:32:12;;;;;;;3.97;3.53;;;;;;;12.91;100.00;97083.06;4991537;28;20203;-65
2022/10/16 01:34:45;;;;;;;3.50;3.20;;;;;;;12.92;100.00;97087.34;4989183;28;20207;-62
2022/10/16 01:37:17;;;;;;;3.90;3.53;;;;;;;12.90;100.00;97088.59;5017515;28;20215;-62
2022/10/16 01:39:46;;;;;;;4.33;3.40;;;;;;;12.90;100.00;97097.38;5016098;28;20399;-60
2022/10/16 01:42:19;;;;;;;4.33;3.90;;;;;;;12.97;100.00;97092.88;4952709;28;20212;-63
2022/10/16 01:44:47;;;;;;;3.13;2.90;;;;;;;12.95;100.00;97102.91;5000024;28;20234;-61
2022/10/16 01:47:16;;;;;;;3.47;3.17;;;;;;;12.98;100.00;97107.00;4992640;28;20210;-60
2022/10/16 01:49:46;;;;;;;3.63;3.30;;;;;;;12.97;100.00;97095.53;4987888;28;20694;-61
2022/10/16 01:52:17;;;;;;;3.90;3.70;;;;;;;13.00;100.00;97087.16;5020058;28;20210;-62
2022/10/16 01:54:47;;;;;;;4.27;3.43;;;;;;;12.99;100.00;97087.38;5016760;28;20381;-61
2022/10/16 01:57:17;;;;;;;3.57;3.27;;;;;;;12.95;100.00;97084.28;5019927;28;21617;-62
2022/10/16 01:59:48;;;;;;;4.10;3.80;;;;;;;12.94;100.00;97090.63;4936351;28;20207;-61
2022/10/16 02:02:17;;;;;;;3.83;3.53;;;;;;;12.95;100.00;97080.81;4990613;28;20749;-60
2022/10/16 02:04:47;;;;;;;4.70;3.30;;;;;;;12.96;100.00;97079.81;4986483;28;20462;-61
2022/10/16 02:07:15;;;;;;;3.90;3.60;;;;;;;12.87;100.00;97087.13;5018337;28;20309;-61
2022/10/16 02:09:43;;;;;;;3.70;3.40;;;;;;;12.88;100.00;97088.78;5015726;28;20210;-62
2022/10/16 02:12:20;;;;;;;3.40;3.20;;;;;;;12.80;100.00;97083.66;5018639;28;20218;-61
2022/10/16 02:14:48;;;;;;;3.90;3.50;;;;;;;12.84;100.00;97079.56;4934282;28;21108;-61
2022/10/16 02:17:18;;;;;;;4.53;3.80;;;;;;;12.91;100.00;97098.22;4966531;28;20217;-61
2022/10/16 02:19:47;;;;;;;5.47;3.80;;;;;;;12.88;100.00;97094.94;4988286;28;20460;-62
2022/10/16 02:22:18;;;;;;;3.60;3.40;;;;;;;12.85;100.00;97097.16;5018660;28;20390;-62
2022/10/16 02:24:53;;;;;;;4.40;3.30;;;;;;;12.85;100.00;97097.16;5016738;28;20215;-62
2022/10/16 02:27:26;;;;;;;3.70;3.40;;;;;;;12.88;100.00;97092.28;5019375;28;20314;-62
2022/10/16 02:29:58;;;;;;;5.17;3.60;;;;;;;12.80;100.00;97095.09;4934531;28;20746;-62
2022/10/16 02:32:31;;;;;;;4.27;3.50;;;;;;;12.76;100.00;97095.72;5016071;28;20578;-62
2022/10/16 02:35:00;;;;;;;4.53;4.03;;;;;;;12.72;100.00;97104.09;4976481;28;22534;-61
2022/10/16 02:37:29;;;;;;;4.27;3.60;;;;;;;12.69;100.00;97096.50;4983309;28;20203;-62
2022/10/16 02:39:59;;;;;;;3.80;3.60;;;;;;;12.76;100.00;97101.03;5002344;28;20405;-61
2022/10/16 02:42:34;;;;;;;4.43;4.13;;;;;;;12.80;100.00;97100.41;5018484;28;20202;-61
2022/10/16 02:45:03;;;;;;;4.17;3.83;;;;;;;12.78;100.00;97101.66;4941208;28;20658;-63
2022/10/16 02:47:31;;;;;;;3.97;3.60;;;;;;;12.81;100.00;97103.91;5013676;28;20610;-61
2022/10/16 02:49:59;;;;;;;5.07;4.13;;;;;;;12.76;100.00;97103.69;4962157;28;20996;-63
2022/10/16 02:52:28;;;;;;;4.10;3.80;;;;;;;12.77;100.00;97114.09;5015392;28;20206;-63
2022/10/16 02:54:56;;;;;;;4.10;3.80;;;;;;;12.76;100.00;97124.94;5017967;28;20207;-62
2022/10/16 02:57:24;;;;;;;4.03;3.70;;;;;;;12.81;100.00;97128.63;5010401;28;20211;-62
2022/10/16 02:59:54;;;;;;;4.67;4.00;;;;;;;12.83;100.00;97128.44;4936287;28;21009;-62
2022/10/16 03:02:23;;;;;;;3.90;3.70;;;;;;;12.86;100.00;97128.84;5014077;28;21663;-63
2022/10/16 03:04:51;;;;;;;4.80;3.83;;;;;;;12.87;100.00;97127.81;4958259;28;23055;-62
2022/10/16 03:07:19;;;;;;;4.87;4.30;;;;;;;12.89;100.00;97127.63;4984800;28;20234;-62
2022/10/16 03:09:47;;;;;;;4.13;3.93;;;;;;;12.86;100.00;97117.41;5013973;28;20218;-61
2022/10/16 03:12:15;;;;;;;4.53;4.20;;;;;;;12.82;100.00;97119.63;5017409;28;20283;-62
2022/10/16 03:14:43;;;;;;;5.67;4.30;;;;;;;12.69;100.00;97114.28;4969824;28;20199;-62
2022/10/16 03:17:16;;;;;;;4.90;4.43;;;;;;;12.73;100.00;97126.16;4986412;28;20216;-62
2022/10/16 03:19:45;;;;;;;4.67;4.23;;;;;;;12.78;100.00;97123.72;4987421;28;20311;-58
2022/10/16 03:22:13;;;;;;;4.60;4.30;;;;;;;12.81;100.00;97130.50;4961395;28;20283;-59
2022/10/16 03:24:41;;;;;;;6.57;4.10;;;;;;;12.77;100.00;97121.28;5014672;28;20207;-60
2022/10/16 03:27:09;;;;;;;4.10;3.80;;;;;;;12.78;100.00;97126.38;5016620;28;20255;-63
2022/10/16 03:29:38;;;;;;;7.47;4.20;;;;;;;12.81;100.00;97119.84;4979835;28;20670;-60
2022/10/16 03:32:06;;;;;;;3.93;3.73;;;;;;;12.82;100.00;97116.97;4977042;28;20365;-64
2022/10/16 03:34:36;;;;;;;4.23;4.03;;;;;;;12.83;100.00;97120.47;5016476;28;20214;-62
2022/10/16 03:37:04;;;;;;;3.97;3.77;;;;;;;12.85;100.00;97121.09;4961434;28;20234;-64
2022/10/16 03:39:32;;;;;;;6.03;4.43;;;;;;;12.82;100.00;97126.81;5015244;28;20207;-62
2022/10/16 03:42:01;;;;;;;3.90;3.60;;;;;;;12.81;100.00;97130.50;5017394;28;21054;-60
2022/10/16 03:44:29;;;;;;;4.30;4.00;;;;;;;12.79;100.00;97133.34;5017629;28;20215;-62
2022/10/16 03:46:57;;;;;;;5.17;3.60;;;;;;;12.76;100.00;97119.63;4938288;28;20425;-62
2022/10/16 03:49:25;;;;;;;4.13;3.83;;;;;;;12.72;100.00;97120.03;4981362;28;20429;-62
2022/10/16 03:51:54;;;;;;;4.00;3.70;;;;;;;12.73;100.00;97121.69;4959787;28;21505;-59
2022/10/16 03:54:23;;;;;;;3.97;3.63;;;;;;;12.76;100.00;97116.97;5016913;28;20206;-61
2022/10/16 03:56:51;;;;;;;4.20;3.90;;;;;;;12.74;100.00;97117.16;5013491;28;20219;-63
2022/10/16 03:59:19;;;;;;;4.07;3.77;;;;;;;12.63;100.00;97109.78;5015777;28;22734;-62
2022/10/16 04:01:47;;;;;;;3.70;3.50;;;;;;;12.57;100.00;97122.00;4964070;28;20390;-62
2022/10/16 04:04:15;;;;;;;10.50;4.40;;;;;;;12.56;100.00;97131.84;5020086;28;20225;-62
2022/10/16 04:06:44;;;;;;;4.17;3.87;;;;;;;12.56;100.00;97131.84;4997319;28;20238;-61
2022/10/16 04:09:13;;;;;;;4.40;4.00;;;;;;;12.58;100.00;97134.28;4946990;28;20643;-62
2022/10/16 04:11:41;;;;;;;4.23;3.83;;;;;;;12.59;100.00;97134.09;5006824;28;20200;-62
2022/10/16 04:14:09;;;;;;;4.63;3.70;;;;;;;12.60;100.00;97140.22;4973484;28;20206;-61
2022/10/16 04:16:38;;;;;;;4.33;4.03;;;;;;;12.61;100.00;97136.53;5016549;28;20241;-60
2022/10/16 04:19:06;;;;;;;3.70;3.50;;;;;;;12.65;100.00;97126.34;4941300;28;20210;-60
2022/10/16 04:21:34;;;;;;;4.33;3.87;;;;;;;12.61;100.00;97135.72;5016833;28;21135;-60
2022/10/16 04:24:02;;;;;;;4.50;4.10;;;;;;;12.49;100.00;97130.16;4963312;28;20207;-62
2022/10/16 04:26:32;;;;;;;6.27;3.37;;;;;;;12.37;100.00;97121.91;5019459;28;20391;-60
2022/10/16 04:29:01;;;;;;;4.30;3.80;;;;;;;12.33;100.00;97124.16;5018802;28;20684;-60
2022/10/16 04:31:29;;;;;;;4.97;3.83;;;;;;;12.27;100.00;97125.75;5018731;28;20570;-55
2022/10/16 04:33:57;;;;;;;4.67;3.53;;;;;;;12.24;100.00;97131.47;4970725;28;20536;-54
2022/10/16 04:36:25;;;;;;;4.87;3.63;;;;;;;12.22;100.00;97136.16;5016454;28;20448;-59
2022/10/16 04:38:56;;;;;;;4.50;4.10;;;;;;;12.16;100.00;97135.09;4993000;28;20485;-56
2022/10/16 04:41:24;;;;;;;6.60;4.10;;;;;;;12.15;100.00;97143.28;4958981;28;20246;-58
2022/10/16 04:43:54;;;;;;;4.10;3.80;;;;;;;12.17;100.00;97146.53;5016731;28;20207;-59
2022/10/16 04:46:22;;;;;;;3.87;3.67;;;;;;;12.13;100.00;97145.31;5017031;28;20246;-59
2022/10/16 04:48:50;;;;;;;4.10;3.90;;;;;;;12.24;100.00;97154.53;4966543;28;25667;-58
2022/10/16 04:51:18;;;;;;;8.07;3.97;;;;;;;12.29;100.00;97157.44;5017549;28;20618;-57
2022/10/16 04:53:46;;;;;;;4.27;3.90;;;;;;;12.32;100.00;97156.22;4985298;28;20678;-63
2022/10/16 04:56:15;;;;;;;6.03;4.00;;;;;;;12.30;100.00;97151.94;4987938;28;20262;-62
2022/10/16 04:58:43;;;;;;;8.03;4.10;;;;;;;12.36;100.00;97153.00;5016120;28;20288;-62
2022/10/16 05:01:13;;;;;;;4.00;3.70;;;;;;;12.41;100.00;97149.72;5020252;28;20210;-62
2022/10/16 05:03:41;;;;;;;4.53;4.13;;;;;;;12.38;100.00;97166.06;5017561;28;20697;-62
2022/10/16 05:06:09;;;;;;;4.10;3.70;;;;;;;12.32;100.00;97148.25;4968459;28;20238;-61
2022/10/16 05:08:37;;;;;;;4.23;3.83;;;;;;;12.39;100.00;97165.88;5013741;28;20207;-61
2022/10/16 05:11:06;;;;;;;3.93;3.70;;;;;;;12.39;100.00;97160.56;4964823;28;20471;-61
2022/10/16 05:13:34;;;;;;;5.47;3.97;;;;;;;12.42;100.00;97162.00;5018287;28;20642;-63
2022/10/16 05:16:02;;;;;;;5.60;4.00;;;;;;;12.41;100.00;97169.16;5004691;28;20407;-62
2022/10/16 05:18:32;;;;;;;10.57;4.00;;;;;;;12.44;100.00;97167.94;5015010;28;20835;-61
2022/10/16 05:21:00;;;;;;;4.40;4.20;;;;;;;12.46;100.00;97160.59;4942179;28;20717;-63
2022/10/16 05:23:28;;;;;;;4.73;4.20;;;;;;;12.51;100.00;97167.97;5014862;28;20209;-64
2022/10/16 05:25:58;;;;;;;4.53;4.23;;;;;;;12.51;100.00;97162.66;4991844;28;20235;-62
2022/10/16 05:28:26;;;;;;;4.40;4.10;;;;;;;12.46;100.00;97171.22;4989043;28;20222;-63
2022/10/16 05:30:54;;;;;;;5.10;4.47;;;;;;;12.41;100.00;97165.66;5003047;28;20236;-62
2022/10/16 05:33:24;;;;;;;4.57;4.20;;;;;;;12.49;100.00;97170.00;5019909;28;20990;-59
2022/10/16 05:35:53;;;;;;;4.87;4.40;;;;;;;12.48;100.00;97173.69;4965641;28;20619;-64
2022/10/16 05:38:22;;;;;;;4.83;4.33;;;;;;;12.44;100.00;97163.44;4987220;28;20462;-62
2022/10/16 05:40:53;;;;;;;4.80;4.17;;;;;;;12.48;100.00;97160.41;5019771;28;20238;-63
2022/10/16 05:43:21;;;;;;;5.93;4.17;;;;;;;12.44;100.00;97158.13;4961686;28;20672;-64
2022/10/16 05:45:55;;;;;;;5.53;5.03;;;;;;;12.57;100.00;97164.53;5014930;28;20222;-62
2022/10/16 05:48:24;;;;;;;5.83;5.30;;;;;;;12.51;100.00;97171.47;4980064;28;20233;-63
2022/10/16 05:50:59;;;;;;;4.40;4.10;;;;;;;12.55;100.00;97164.75;4931464;28;20754;-62
2022/10/16 05:53:29;;;;;;;4.63;4.07;;;;;;;12.56;100.00;97153.09;4992348;28;20214;-63
2022/10/16 05:55:57;;;;;;;4.63;4.30;;;;;;;12.56;100.00;97136.31;5016087;28;20521;-62
2022/10/16 05:58:26;;;;;;;4.10;3.90;;;;;;;12.61;100.00;97127.75;4962053;28;20510;-63
2022/10/16 06:00:56;;;;;;;3.70;3.50;;;;;;;12.55;100.00;97137.34;5013828;28;20437;-62
2022/10/16 06:03:24;;;;;;;3.80;3.57;;;;;;;12.50;100.00;97148.56;4983888;28;20233;-64
2022/10/16 06:05:52;;;;;;;3.97;3.67;;;;;;;12.50;100.00;97145.91;5018229;28;20535;-63
2022/10/16 06:08:23;;;;;;;3.40;3.20;;;;;;;12.48;100.00;97152.44;4936682;28;20976;-63
2022/10/16 06:11:01;;;;;;;3.43;3.20;;;;;;;12.43;100.00;97161.81;5019195;28;20211;-63
2022/10/16 06:13:30;;;;;;;5.43;4.60;;;;;;;12.42;100.00;97178.78;4956889;28;20314;-63
2022/10/16 06:15:58;;;;;;;4.10;3.90;;;;;;;12.38;100.00;97180.19;5019361;28;20610;-64
2022/10/16 06:18:27;;;;;;;4.73;4.33;;;;;;;12.38;100.00;97179.34;4950961;28;20203;-63
2022/10/16 06:20:55;;;;;;;5.90;5.30;;;;;;;12.43;100.00;97180.41;5019862;28;20214;-66
2022/10/16 06:23:25;;;;;;;8.97;7.77;;;;;;;12.43;100.00;97183.06;4964048;28;20469;-63
2022/10/16 06:25:53;;;;;;;10.70;9.63;;;;;;;12.52;100.00;97189.06;5018706;28;20893;-62
2022/10/16 06:28:21;;;;;;;6.43;5.83;;;;;;;12.55;100.00;97201.13;4963812;28;20922;-62
2022/10/16 06:30:50;;;;;;;6.00;5.50;;;;;;;12.56;100.00;97214.22;5015359;28;20757;-62
2022/10/16 06:33:18;;;;;;;5.93;5.20;;;;;;;12.53;100.00;97214.63;5017211;28;20258;-62
2022/10/16 06:35:46;;;;;;;6.87;5.43;;;;;;;12.46;100.00;97216.38;5019739;28;21822;-64
2022/10/16 06:38:14;;;;;;;7.03;4.97;;;;;;;12.42;100.00;97226.59;4965854;28;20222;-63
2022/10/16 06:40:44;;;;;;;5.00;4.50;;;;;;;12.45;100.00;97238.66;4983669;28;20226;-63
2022/10/16 06:43:12;;;;;;;4.20;4.00;;;;;;;12.40;100.00;97243.75;4993880;28;20466;-64
2022/10/16 06:45:40;;;;;;;5.27;4.40;;;;;;;12.34;100.00;97245.34;4956973;28;20760;-61
2022/10/16 06:48:08;;;;;;;4.90;4.50;;;;;;;12.31;100.00;97253.69;5014982;28;20428;-62
2022/10/16 06:50:36;;;;;;;5.67;5.17;;;;;;;12.51;100.00;97245.03;4983350;28;20215;-61
2022/10/16 06:53:04;;;;;;;5.10;4.80;;;;;;;12.57;100.00;97250.41;4960048;28;22378;-61
2022/10/16 06:55:32;;;;;;;5.20;4.50;;;;;;;12.85;100.00;97270.78;5015963;28;20237;-61
2022/10/16 06:58:02;;;;;;;6.33;5.40;;;;;;;13.13;100.00;97272.56;5013993;28;21099;-61
2022/10/16 07:00:30;;;;;;;5.87;4.97;;;;;;;13.11;100.00;97271.16;4924407;28;21100;-61
2022/10/16 07:02:58;;;;;;;4.37;4.17;;;;;;;13.05;100.00;97277.22;4957673;28;20707;-62
2022/10/16 07:05:26;;;;;;;4.93;4.53;;;;;;;13.09;100.00;97268.66;4988203;28;20332;-63
2022/10/16 07:07:55;;;;;;;17.57;16.00;;;;;;;13.21;100.00;97278.75;4986138;28;20270;-62
2022/10/16 07:10:23;;;;;;;18.87;16.87;;;;;;;13.18;100.00;97279.97;4962285;28;20829;-61
2022/10/16 07:12:52;;;;;;;5.03;4.63;;;;;;;13.24;100.00;97283.66;5017843;28;20229;-60
2022/10/16 07:15:22;;;;;;;5.53;5.03;;;;;;;13.30;100.00;97288.22;4960439;28;20237;-61
2022/10/16 07:17:50;;;;;;;5.40;5.10;;;;;;;13.26;100.00;97281.66;5016109;28;20692;-62
2022/10/16 07:20:18;;;;;;;5.27;4.77;;;;;;;13.37;100.00;97282.91;4991281;28;20218;-61
2022/10/16 07:22:46;;;;;;;5.70;5.30;;;;;;;13.51;100.00;97281.97;5015855;28;20578;-62
2022/10/16 07:25:14;;;;;;;5.33;4.87;;;;;;;13.58;100.00;97282.78;4971110;28;20233;-62
2022/10/16 07:27:43;;;;;;;5.47;4.97;;;;;;;13.59;100.00;97291.59;4952693;28;20217;-62
2022/10/16 07:30:11;;;;;;;4.73;4.43;;;;;;;13.62;100.00;97293.03;4991842;28;20769;-61
2022/10/16 07:32:41;;;;;;;4.87;4.47;;;;;;;13.69;100.00;97280.56;4984891;28;20417;-61
2022/10/16 07:35:09;;;;;;;4.17;3.90;;;;;;;13.73;100.00;97279.13;5011671;28;21224;-62
2022/10/16 07:37:38;;;;;;;5.10;4.07;;;;;;;13.74;100.00;97283.44;5003393;28;20210;-62
2022/10/16 07:40:07;;;;;;;6.00;4.17;;;;;;;13.73;100.00;97279.97;4983221;28;20213;-61
2022/10/16 07:42:35;;;;;;;4.77;3.90;;;;;;;13.82;100.00;97293.09;5012575;28;20214;-61
2022/10/16 07:45:04;;;;;;;4.33;4.00;;;;;;;14.00;100.00;97285.31;4990977;28;20629;-62
2022/10/16 07:47:32;;;;;;;4.73;4.33;;;;;;;14.14;100.00;97296.81;4986802;28;20215;-62
2022/10/16 07:50:02;;;;;;;11.90;10.90;;;;;;;14.40;100.00;97295.19;5019713;28;20237;-61
2022/10/16 07:52:30;;;;;;;8.30;7.50;;;;;;;14.51;100.00;97287.56;5014860;28;20753;-61
2022/10/16 07:54:58;;;;;;;4.27;3.87;;;;;;;14.33;100.00;97283.72;4967286;28;20222;-61
2022/10/16 07:57:27;;;;;;;4.63;4.37;;;;;;;14.58;100.00;97291.88;5012653;28;20206;-62
2022/10/16 07:59:55;;;;;;;3.93;3.73;;;;;;;14.57;100.00;97295.59;5017449;28;20272;-63
2022/10/16 08:02:24;;;;;;;4.63;4.20;;;;;;;14.67;100.00;97289.84;4986276;28;20834;-61
2022/10/16 08:04:52;;;;;;;4.77;3.93;;;;;;;14.80;100.00;97293.53;4990183;28;20226;-61
2022/10/16 08:07:21;;;;;;;4.63;4.33;;;;;;;14.97;100.00;97302.72;5011717;28;20870;-62
2022/10/16 08:09:51;;;;;;;4.20;3.77;;;;;;;15.02;100.00;97307.41;4965211;28;20491;-62
2022/10/16 08:12:19;;;;;;;4.37;3.60;;;;;;;15.09;100.00;97313.56;5017520;28;20652;-61
2022/10/16 08:14:48;;;;;;;4.50;3.83;;;;;;;15.32;100.00;97309.59;5012856;28;20361;-61
2022/10/16 08:17:16;;;;;;;3.97;3.77;;;;;;;15.48;100.00;97310.97;4988849;28;21288;-64
2022/10/16 08:19:46;;;;;;;4.93;4.00;;;;;;;15.51;100.00;97299.03;4960568;28;20237;-62
2022/10/16 08:22:15;;;;;;;3.80;3.50;;;;;;;15.42;100.00;97309.94;5017699;28;20926;-60
2022/10/16 08:24:45;;;;;;;3.70;3.40;;;;;;;15.49;100.00;97297.38;4972121;28;20516;-62
2022/10/16 08:27:14;;;;;;;3.50;3.23;;;;;;;15.48;100.00;97311.78;4987309;28;20445;-64
2022/10/16 08:29:42;;;;;;;3.17;2.90;;;;;;;15.47;100.00;97314.66;5013934;28;20920;-63
2022/10/16 08:32:10;;;;;;;3.53;3.20;;;;;;;15.48;100.00;97311.78;4993408;28;20210;-62
2022/10/16 08:34:38;;;;;;;4.40;4.10;;;;;;;15.36;100.00;97331.34;4989482;28;20532;-62
2022/10/16 08:37:07;;;;;;;3.40;3.20;;;;;;;15.26;100.00;97331.78;4989259;28;20231;-62
2022/10/16 08:39:36;;;;;;;4.40;3.67;;;;;;;15.27;100.00;97318.22;5015585;28;20335;-61
2022/10/16 08:42:21;;;;;;;3.40;3.13;;;;;;;15.40;100.00;97324.56;4981752;28;21251;-62
2022/10/16 08:45:31;;;;;;;4.40;3.03;;;;;;;15.46;100.00;97310.34;5014853;28;20207;-63
2022/10/16 08:48:10;;;;;;;2.67;2.57;;;;;;;15.36;100.00;97313.47;4989836;28;21836;-65
2022/10/16 08:50:40;;;;;;;4.80;3.17;;;;;;;15.50;100.00;97314.25;4992992;28;20198;-61
2022/10/16 08:53:14;;;;;;;3.27;3.00;;;;;;;15.98;100.00;97298.78;5020094;28;20293;-62
2022/10/16 08:55:44;;;;;;;5.73;3.30;;;;;;;16.17;100.00;97303.19;4996364;28;20219;-62
2022/10/16 08:58:16;;;;;;;3.03;2.90;;;;;;;16.04;100.00;97295.25;5017403;28;20208;-63
2022/10/16 09:00:47;;;;;;;3.07;2.90;;;;;;;16.20;100.00;97297.41;5014608;28;20234;-61
2022/10/16 09:03:25;;;;;;;3.70;3.10;;;;;;;16.60;100.00;97298.13;5022559;28;20199;-60
2022/10/16 09:06:17;;;;;;;3.00;2.80;;;;;;;16.15;100.00;97302.59;4966093;28;22915;-63
2022/10/16 09:08:54;;;;;;;4.60;3.00;;;;;;;16.01;100.00;97301.88;5015437;28;22016;-63
2022/10/16 09:11:26;;;;;;;3.30;3.00;;;;;;;15.94;100.00;97301.09;5021240;28;20207;-63
2022/10/16 09:14:00;;;;;;;3.40;3.13;;;;;;;16.34;100.00;97318.69;4982285;28;20409;-62
2022/10/16 09:16:31;;;;;;;3.40;3.20;;;;;;;16.63;100.00;97316.41;5015670;28;20309;-61
2022/10/16 09:19:03;;;;;;;3.77;3.57;;;;;;;16.66;100.00;97296.41;4941288;28;21110;-64
2022/10/16 09:21:33;;;;;;;2.73;2.53;;;;;;;16.63;100.00;97297.66;4959131;28;20227;-63
2022/10/16 09:24:09;;;;;;;3.27;2.83;;;;;;;17.24;100.00;97313.13;4966714;28;21178;-63
2022/10/16 09:26:38;;;;;;;3.00;2.80;;;;;;;17.24;100.00;97316.66;4983320;28;20617;-65
2022/10/16 09:29:07;;;;;;;2.70;2.60;;;;;;;17.55;100.00;97316.69;4983014;28;20533;-64
2022/10/16 09:31:37;;;;;;;4.33;3.00;;;;;;;17.50;100.00;97317.34;5016974;28;20356;-63
2022/10/16 09:34:08;;;;;;;2.73;2.60;;;;;;;17.62;100.00;97306.69;5018458;28;20371;-63
2022/10/16 09:36:41;;;;;;;3.10;3.00;;;;;;;17.60;100.00;97303.44;4957591;28;21745;-63
2022/10/16 09:39:11;;;;;;;3.20;2.90;;;;;;;17.85;100.00;97310.53;4992747;28;20218;-64
2022/10/16 09:41:41;;;;;;;3.60;3.27;;;;;;;17.98;100.00;97310.31;4986211;28;23125;-63
2022/10/16 09:44:20;;;;;;;2.53;2.33;;;;;;;18.08;100.00;97315.97;4963056;28;22160;-63
2022/10/16 09:46:48;;;;;;;3.00;2.63;;;;;;;18.03;100.00;97317.72;5011010;28;20317;-63
2022/10/16 09:49:23;;;;;;;3.30;3.00;;;;;;;18.20;100.00;97321.38;5015712;28;20312;-63
2022/10/16 09:52:03;;;;;;;2.80;2.60;;;;;;;18.14;100.00;97329.50;4959630;28;20677;-64
2022/10/16 09:54:31;;;;;;;3.40;2.47;;;;;;;18.45;100.00;97331.09;4992469;28;20676;-64
2022/10/16 09:57:06;;;;;;;4.03;2.77;;;;;;;18.26;100.00;97330.38;5019956;28;20761;-63
2022/10/16 09:59:47;;;;;;;2.57;2.47;;;;;;;18.00;100.00;97326.19;4944930;28;20233;-63
2022/10/16 10:02:16;;;;;;;3.17;2.87;;;;;;;17.90;100.00;97321.38;4999603;28;20202;-64
2022/10/16 10:04:50;;;;;;;3.40;3.10;;;;;;;17.83;100.00;97334.06;5009239;28;20236;-63
2022/10/16 10:07:20;;;;;;;5.50;2.60;;;;;;;18.22;100.00;97338.03;4979576;28;20213;-62
2022/10/16 10:09:48;;;;;;;2.87;2.67;;;;;;;18.26;100.00;97326.84;4994658;28;20231;-63
2022/10/16 10:12:20;;;;;;;2.67;2.40;;;;;;;18.53;100.00;97327.25;5020807;28;20210;-61
2022/10/16 10:14:57;;;;;;;3.30;3.00;;;;;;;18.79;100.00;97327.84;4983148;28;20250;-56
2022/10/16 10:17:26;;;;;;;2.93;2.80;;;;;;;19.01;99.31;97325.41;4983866;28;20475;-57
2022/10/16 10:19:55;;;;;;;2.90;2.70;;;;;;;19.18;98.88;97327.41;5016022;28;20598;-55
2022/10/16 10:22:32;;;;;;;2.93;2.83;;;;;;;19.18;97.48;97319.34;4988339;28;20210;-57
2022/10/16 10:25:20;;;;;;;2.97;2.77;;;;;;;19.30;93.87;97321.97;4991011;28;20230;-57
2022/10/16 10:28:05;;;;;;;2.53;2.40;;;;;;;19.68;92.79;97315.19;5017787;28;20203;-55
2022/10/16 10:30:38;;;;;;;3.37;3.07;;;;;;;19.46;95.62;97323.94;4965939;28;20448;-63
2022/10/16 10:33:24;;;;;;;2.80;2.70;;;;;;;20.24;90.08;97318.13;5014910;28;20214;-63
2022/10/16 10:35:57;;;;;;;2.43;2.23;;;;;;;20.23;85.79;97319.19;4987373;28;20676;-61
2022/10/16 10:38:34;;;;;;;2.80;2.50;;;;;;;19.99;84.39;97312.31;4959094;28;20558;-60
2022/10/16 10:41:14;;;;;;;2.67;2.47;;;;;;;20.09;84.96;97309.81;5014345;28;20770;-59
2022/10/16 10:43:53;;;;;;;2.80;2.67;;;;;;;20.20;84.47;97313.47;5015132;28;20202;-60
2022/10/16 10:46:29;;;;;;;2.73;2.53;;;;;;;19.67;85.62;97302.81;4966341;28;20226;-61
2022/10/16 10:49:17;;;;;;;3.13;2.80;;;;;;;19.23;90.89;97319.44;5014693;28;20419;-63
2022/10/16 10:51:53;;;;;;;2.70;2.50;;;;;;;19.30;90.02;97316.59;5011949;28;20735;-62
2022/10/16 10:54:27;;;;;;;2.80;2.60;;;;;;;19.15;90.90;97325.97;4990013;28;20215;-60
2022/10/16 10:56:59;;;;;;;4.67;2.80;;;;;;;18.69;93.70;97328.41;4985191;28;21001;-63
2022/10/16 10:59:41;;;;;;;2.60;2.47;;;;;;;19.22;92.97;97332.03;5012120;28;20208;-61
2022/10/16 11:02:18;;;;;;;3.20;2.60;;;;;;;18.80;93.86;97327.63;4987388;28;20502;-61
2022/10/16 11:05:07;;;;;;;3.53;2.40;;;;;;;18.73;95.95;97323.41;4988471;28;20603;-60
2022/10/16 11:07:38;;;;;;;2.97;2.67;;;;;;;19.07;92.55;97316.41;4991849;28;20355;-62
2022/10/16 11:10:14;;;;;;;3.33;2.70;;;;;;;19.35;93.08;97324.78;4990895;28;20791;-63
2022/10/16 11:12:44;;;;;;;2.63;2.53;;;;;;;19.28;92.33;97319.53;5016005;28;20302;-63
2022/10/16 11:15:15;;;;;;;6.23;3.40;;;;;;;19.26;93.98;97332.41;5017703;28;20218;-63
2022/10/16 11:17:49;;;;;;;2.77;2.57;;;;;;;19.21;91.56;97326.91;4939183;28;20684;-61
2022/10/16 11:20:21;;;;;;;2.40;2.30;;;;;;;19.29;92.26;97318.50;4988816;28;20416;-62
2022/10/16 11:22:52;;;;;;;4.10;2.97;;;;;;;19.26;94.70;97315.44;4983497;28;20214;-62
2022/10/16 11:25:24;;;;;;;3.27;2.90;;;;;;;19.27;93.57;97317.09;5001767;28;20884;-61
2022/10/16 11:27:56;;;;;;;2.90;2.70;;;;;;;19.24;95.29;97316.50;5015121;28;20626;-60
2022/10/16 11:30:26;;;;;;;3.13;2.53;;;;;;;19.13;94.08;97313.84;5015423;28;21086;-61
2022/10/16 11:33:21;;;;;;;3.80;2.60;;;;;;;18.96;94.09;97309.16;4977082;28;20221;-62
2022/10/16 11:35:53;;;;;;;2.70;2.47;;;;;;;19.23;94.19;97314.06;5015295;28;20220;-62
2022/10/16 11:38:28;;;;;;;2.70;2.60;;;;;;;19.33;93.71;97308.91;5013519;28;20499;-61
2022/10/16 11:41:00;;;;;;;2.70;2.50;;;;;;;19.81;90.86;97308.72;5006573;28;20206;-62
2022/10/16 11:43:32;;;;;;;2.53;2.30;;;;;;;19.71;90.96;97314.75;5015858;28;20230;-62